sensor_id;sensor_type;location;lat;lon;timestamp;P1;durP1;ratioP1;P2;durP2;ratioP2
81821;SDS011;72257;52.384;4.882;2024-02-28T00:01:48;5.22;;;2.83;;
81821;SDS011;72257;52.384;4.882;2024-02-28T00:04:17;7.18;;;3.83;;
81821;SDS011;72257;52.384;4.882;2024-02-28T00:06:44;6.88;;;3.10;;
81821;SDS011;72257;52.384;4.882;2024-02-28T00:09:11;11.85;;;3.50;;
81821;SDS011;72257;52.384;4.882;2024-02-28T00:11:44;6.47;;;3.53;;
81821;SDS011;72257;52.384;4.882;2024-02-28T00:14:11;8.63;;;3.45;;
81821;SDS011;72257;52.384;4.882;2024-02-28T00:16:39;7.20;;;3.63;;
81821;SDS011;72257;52.384;4.882;2024-02-28T00:19:05;6.75;;;3.58;;
81821;SDS011;72257;52.384;4.882;2024-02-28T00:21:30;5.20;;;3.65;;
81821;SDS011;72257;52.384;4.882;2024-02-28T00:23:56;6.90;;;3.77;;
81821;SDS011;72257;52.384;4.882;2024-02-28T00:26:21;7.07;;;3.50;;
81821;SDS011;72257;52.384;4.882;2024-02-28T00:28:46;6.50;;;3.57;;
81821;SDS011;72257;52.384;4.882;2024-02-28T00:31:12;8.83;;;3.87;;
81821;SDS011;72257;52.384;4.882;2024-02-28T00:33:37;8.07;;;3.80;;
81821;SDS011;72257;52.384;4.882;2024-02-28T00:36:02;8.57;;;4.13;;
81821;SDS011;72257;52.384;4.882;2024-02-28T00:38:28;6.93;;;4.13;;
81821;SDS011;72257;52.384;4.882;2024-02-28T00:40:53;5.87;;;3.47;;
81821;SDS011;72257;52.384;4.882;2024-02-28T00:43:19;7.20;;;3.87;;
81821;SDS011;72257;52.384;4.882;2024-02-28T00:45:44;10.05;;;4.07;;
81821;SDS011;72257;52.384;4.882;2024-02-28T00:48:09;6.73;;;4.27;;
81821;SDS011;72257;52.384;4.882;2024-02-28T00:50:35;7.07;;;3.80;;
81821;SDS011;72257;52.384;4.882;2024-02-28T00:53:00;6.90;;;4.47;;
81821;SDS011;72257;52.384;4.882;2024-02-28T00:55:25;7.20;;;3.80;;
81821;SDS011;72257;52.384;4.882;2024-02-28T00:57:51;8.25;;;3.65;;
81821;SDS011;72257;52.384;4.882;2024-02-28T01:00:16;6.47;;;4.13;;
81821;SDS011;72257;52.384;4.882;2024-02-28T01:02:42;7.72;;;3.75;;
81821;SDS011;72257;52.384;4.882;2024-02-28T01:05:07;6.00;;;3.50;;
81821;SDS011;72257;52.384;4.882;2024-02-28T01:07:34;8.98;;;4.47;;
81821;SDS011;72257;52.384;4.882;2024-02-28T01:09:59;7.83;;;4.40;;
81821;SDS011;72257;52.384;4.882;2024-02-28T01:12:25;9.02;;;4.22;;
81821;SDS011;72257;52.384;4.882;2024-02-28T01:14:50;8.18;;;4.13;;
81821;SDS011;72257;52.384;4.882;2024-02-28T01:17:16;6.32;;;4.10;;
81821;SDS011;72257;52.384;4.882;2024-02-28T01:19:41;6.63;;;4.07;;
81821;SDS011;72257;52.384;4.882;2024-02-28T01:22:06;9.15;;;4.22;;
81821;SDS011;72257;52.384;4.882;2024-02-28T01:24:33;8.60;;;4.38;;
81821;SDS011;72257;52.384;4.882;2024-02-28T01:26:59;6.75;;;4.10;;
81821;SDS011;72257;52.384;4.882;2024-02-28T01:29:25;6.22;;;3.85;;
81821;SDS011;72257;52.384;4.882;2024-02-28T01:31:50;7.97;;;4.38;;
81821;SDS011;72257;52.384;4.882;2024-02-28T01:34:15;8.03;;;4.40;;
81821;SDS011;72257;52.384;4.882;2024-02-28T01:36:41;5.53;;;3.90;;
81821;SDS011;72257;52.384;4.882;2024-02-28T01:39:06;5.97;;;3.63;;
81821;SDS011;72257;52.384;4.882;2024-02-28T01:41:31;5.22;;;3.40;;
81821;SDS011;72257;52.384;4.882;2024-02-28T01:43:57;6.07;;;3.60;;
81821;SDS011;72257;52.384;4.882;2024-02-28T01:46:23;6.63;;;4.47;;
81821;SDS011;72257;52.384;4.882;2024-02-28T01:48:52;12.52;;;4.68;;
81821;SDS011;72257;52.384;4.882;2024-02-28T01:51:18;6.45;;;4.10;;
81821;SDS011;72257;52.384;4.882;2024-02-28T01:53:44;8.45;;;4.47;;
81821;SDS011;72257;52.384;4.882;2024-02-28T01:56:11;8.68;;;3.70;;
81821;SDS011;72257;52.384;4.882;2024-02-28T01:58:39;7.00;;;3.97;;
81821;SDS011;72257;52.384;4.882;2024-02-28T02:01:04;7.93;;;3.47;;
81821;SDS011;72257;52.384;4.882;2024-02-28T02:03:32;8.20;;;3.92;;
81821;SDS011;72257;52.384;4.882;2024-02-28T02:05:59;8.60;;;4.40;;
81821;SDS011;72257;52.384;4.882;2024-02-28T02:08:26;6.20;;;3.63;;
81821;SDS011;72257;52.384;4.882;2024-02-28T02:10:51;6.15;;;3.47;;
81821;SDS011;72257;52.384;4.882;2024-02-28T02:13:17;11.07;;;4.68;;
81821;SDS011;72257;52.384;4.882;2024-02-28T02:15:42;9.00;;;4.03;;
81821;SDS011;72257;52.384;4.882;2024-02-28T02:18:08;7.87;;;4.00;;
81821;SDS011;72257;52.384;4.882;2024-02-28T02:20:33;5.43;;;3.70;;
81821;SDS011;72257;52.384;4.882;2024-02-28T02:23:03;7.35;;;3.53;;
81821;SDS011;72257;52.384;4.882;2024-02-28T02:25:29;7.20;;;3.97;;
81821;SDS011;72257;52.384;4.882;2024-02-28T02:27:55;7.10;;;4.03;;
81821;SDS011;72257;52.384;4.882;2024-02-28T02:30:20;7.28;;;3.83;;
81821;SDS011;72257;52.384;4.882;2024-02-28T02:32:45;6.15;;;3.92;;
81821;SDS011;72257;52.384;4.882;2024-02-28T02:35:11;5.67;;;3.47;;
81821;SDS011;72257;52.384;4.882;2024-02-28T02:37:36;6.25;;;3.40;;
81821;SDS011;72257;52.384;4.882;2024-02-28T02:40:01;7.77;;;4.50;;
81821;SDS011;72257;52.384;4.882;2024-02-28T02:42:27;9.45;;;4.05;;
81821;SDS011;72257;52.384;4.882;2024-02-28T02:44:52;7.47;;;4.20;;
81821;SDS011;72257;52.384;4.882;2024-02-28T02:47:17;7.22;;;3.90;;
81821;SDS011;72257;52.384;4.882;2024-02-28T02:49:43;7.73;;;3.70;;
81821;SDS011;72257;52.384;4.882;2024-02-28T02:52:08;7.13;;;3.87;;
81821;SDS011;72257;52.384;4.882;2024-02-28T02:54:33;9.90;;;4.23;;
81821;SDS011;72257;52.384;4.882;2024-02-28T02:56:59;6.53;;;3.65;;
81821;SDS011;72257;52.384;4.882;2024-02-28T02:59:24;7.38;;;3.80;;
81821;SDS011;72257;52.384;4.882;2024-02-28T03:01:49;8.05;;;4.20;;
81821;SDS011;72257;52.384;4.882;2024-02-28T03:04:15;6.15;;;3.80;;
81821;SDS011;72257;52.384;4.882;2024-02-28T03:06:41;8.98;;;4.20;;
81821;SDS011;72257;52.384;4.882;2024-02-28T03:09:06;6.13;;;4.10;;
81821;SDS011;72257;52.384;4.882;2024-02-28T03:11:32;6.32;;;4.05;;
81821;SDS011;72257;52.384;4.882;2024-02-28T03:14:00;10.75;;;4.75;;
81821;SDS011;72257;52.384;4.882;2024-02-28T03:16:25;7.85;;;4.47;;
81821;SDS011;72257;52.384;4.882;2024-02-28T03:18:50;6.53;;;3.80;;
81821;SDS011;72257;52.384;4.882;2024-02-28T03:21:16;7.23;;;4.03;;
81821;SDS011;72257;52.384;4.882;2024-02-28T03:23:42;7.28;;;4.70;;
81821;SDS011;72257;52.384;4.882;2024-02-28T03:26:07;8.73;;;4.80;;
81821;SDS011;72257;52.384;4.882;2024-02-28T03:28:32;8.77;;;4.33;;
81821;SDS011;72257;52.384;4.882;2024-02-28T03:30:58;8.10;;;4.67;;
81821;SDS011;72257;52.384;4.882;2024-02-28T03:33:23;7.47;;;5.07;;
81821;SDS011;72257;52.384;4.882;2024-02-28T03:35:50;12.30;;;5.72;;
81821;SDS011;72257;52.384;4.882;2024-02-28T03:38:15;10.80;;;5.13;;
81821;SDS011;72257;52.384;4.882;2024-02-28T03:40:40;9.85;;;5.00;;
81821;SDS011;72257;52.384;4.882;2024-02-28T03:43:06;10.15;;;4.80;;
81821;SDS011;72257;52.384;4.882;2024-02-28T03:45:36;13.60;;;4.82;;
81821;SDS011;72257;52.384;4.882;2024-02-28T03:48:02;9.30;;;5.60;;
81821;SDS011;72257;52.384;4.882;2024-02-28T03:50:28;8.73;;;5.10;;
81821;SDS011;72257;52.384;4.882;2024-02-28T03:52:53;10.70;;;5.77;;
81821;SDS011;72257;52.384;4.882;2024-02-28T03:55:18;8.38;;;4.82;;
81821;SDS011;72257;52.384;4.882;2024-02-28T03:57:46;8.60;;;5.38;;
81821;SDS011;72257;52.384;4.882;2024-02-28T04:00:12;13.10;;;5.78;;
81821;SDS011;72257;52.384;4.882;2024-02-28T04:02:39;10.43;;;5.32;;
81821;SDS011;72257;52.384;4.882;2024-02-28T04:05:04;10.03;;;5.20;;
81821;SDS011;72257;52.384;4.882;2024-02-28T04:07:29;10.55;;;5.57;;
81821;SDS011;72257;52.384;4.882;2024-02-28T04:09:55;10.20;;;5.75;;
81821;SDS011;72257;52.384;4.882;2024-02-28T04:12:20;11.30;;;5.70;;
81821;SDS011;72257;52.384;4.882;2024-02-28T04:14:45;15.23;;;6.43;;
81821;SDS011;72257;52.384;4.882;2024-02-28T04:17:11;9.83;;;5.80;;
81821;SDS011;72257;52.384;4.882;2024-02-28T04:19:36;15.10;;;6.17;;
81821;SDS011;72257;52.384;4.882;2024-02-28T04:22:02;10.18;;;6.38;;
81821;SDS011;72257;52.384;4.882;2024-02-28T04:24:28;13.23;;;5.57;;
81821;SDS011;72257;52.384;4.882;2024-02-28T04:26:53;12.47;;;6.00;;
81821;SDS011;72257;52.384;4.882;2024-02-28T04:29:18;13.63;;;6.20;;
81821;SDS011;72257;52.384;4.882;2024-02-28T04:31:44;11.20;;;5.70;;
81821;SDS011;72257;52.384;4.882;2024-02-28T04:34:09;11.70;;;6.57;;
81821;SDS011;72257;52.384;4.882;2024-02-28T04:36:34;15.43;;;6.70;;
81821;SDS011;72257;52.384;4.882;2024-02-28T04:39:00;12.17;;;6.77;;
81821;SDS011;72257;52.384;4.882;2024-02-28T04:41:26;14.15;;;6.93;;
81821;SDS011;72257;52.384;4.882;2024-02-28T04:43:53;12.63;;;6.63;;
81821;SDS011;72257;52.384;4.882;2024-02-28T04:46:18;12.90;;;6.40;;
81821;SDS011;72257;52.384;4.882;2024-02-28T04:48:43;13.03;;;6.90;;
81821;SDS011;72257;52.384;4.882;2024-02-28T04:51:09;13.13;;;6.45;;
81821;SDS011;72257;52.384;4.882;2024-02-28T04:53:34;11.07;;;6.20;;
81821;SDS011;72257;52.384;4.882;2024-02-28T04:55:59;12.03;;;6.77;;
81821;SDS011;72257;52.384;4.882;2024-02-28T04:58:25;12.20;;;6.88;;
81821;SDS011;72257;52.384;4.882;2024-02-28T05:00:50;12.80;;;7.37;;
81821;SDS011;72257;52.384;4.882;2024-02-28T05:03:16;16.08;;;6.53;;
81821;SDS011;72257;52.384;4.882;2024-02-28T05:05:42;13.60;;;6.63;;
81821;SDS011;72257;52.384;4.882;2024-02-28T05:08:07;13.73;;;7.23;;
81821;SDS011;72257;52.384;4.882;2024-02-28T05:10:32;15.15;;;7.68;;
81821;SDS011;72257;52.384;4.882;2024-02-28T05:12:59;12.48;;;7.35;;
81821;SDS011;72257;52.384;4.882;2024-02-28T05:15:24;15.57;;;7.18;;
81821;SDS011;72257;52.384;4.882;2024-02-28T05:17:50;17.47;;;8.20;;
81821;SDS011;72257;52.384;4.882;2024-02-28T05:20:17;16.30;;;7.72;;
81821;SDS011;72257;52.384;4.882;2024-02-28T05:22:42;13.55;;;8.20;;
81821;SDS011;72257;52.384;4.882;2024-02-28T05:25:07;13.13;;;7.10;;
81821;SDS011;72257;52.384;4.882;2024-02-28T05:27:33;15.13;;;8.30;;
81821;SDS011;72257;52.384;4.882;2024-02-28T05:29:58;16.17;;;8.57;;
81821;SDS011;72257;52.384;4.882;2024-02-28T05:32:26;16.13;;;8.75;;
81821;SDS011;72257;52.384;4.882;2024-02-28T05:34:51;17.15;;;8.25;;
81821;SDS011;72257;52.384;4.882;2024-02-28T05:37:16;15.18;;;8.32;;
81821;SDS011;72257;52.384;4.882;2024-02-28T05:39:42;14.43;;;7.13;;
81821;SDS011;72257;52.384;4.882;2024-02-28T05:42:08;12.70;;;7.23;;
81821;SDS011;72257;52.384;4.882;2024-02-28T05:44:34;15.68;;;7.65;;
81821;SDS011;72257;52.384;4.882;2024-02-28T05:46:59;14.57;;;7.70;;
81821;SDS011;72257;52.384;4.882;2024-02-28T05:49:25;16.42;;;8.15;;
81821;SDS011;72257;52.384;4.882;2024-02-28T05:51:51;16.67;;;7.70;;
81821;SDS011;72257;52.384;4.882;2024-02-28T05:54:16;12.27;;;7.50;;
81821;SDS011;72257;52.384;4.882;2024-02-28T05:56:41;15.20;;;7.87;;
81821;SDS011;72257;52.384;4.882;2024-02-28T05:59:07;18.25;;;8.63;;
81821;SDS011;72257;52.384;4.882;2024-02-28T06:01:32;14.07;;;7.50;;
81821;SDS011;72257;52.384;4.882;2024-02-28T06:03:58;12.77;;;7.63;;
81821;SDS011;72257;52.384;4.882;2024-02-28T06:06:23;12.68;;;7.07;;
81821;SDS011;72257;52.384;4.882;2024-02-28T06:08:48;17.93;;;7.93;;
81821;SDS011;72257;52.384;4.882;2024-02-28T06:11:14;13.68;;;7.18;;
81821;SDS011;72257;52.384;4.882;2024-02-28T06:13:42;14.60;;;7.72;;
81821;SDS011;72257;52.384;4.882;2024-02-28T06:16:13;12.93;;;7.07;;
81821;SDS011;72257;52.384;4.882;2024-02-28T06:18:38;13.98;;;7.93;;
81821;SDS011;72257;52.384;4.882;2024-02-28T06:21:04;13.80;;;8.33;;
81821;SDS011;72257;52.384;4.882;2024-02-28T06:23:29;15.73;;;7.37;;
81821;SDS011;72257;52.384;4.882;2024-02-28T06:25:55;14.27;;;7.47;;
81821;SDS011;72257;52.384;4.882;2024-02-28T06:28:20;15.52;;;7.47;;
81821;SDS011;72257;52.384;4.882;2024-02-28T06:30:46;12.13;;;7.00;;
81821;SDS011;72257;52.384;4.882;2024-02-28T06:33:12;14.87;;;8.10;;
81821;SDS011;72257;52.384;4.882;2024-02-28T06:35:38;13.68;;;8.18;;
81821;SDS011;72257;52.384;4.882;2024-02-28T06:38:03;15.38;;;7.72;;
81821;SDS011;72257;52.384;4.882;2024-02-28T06:40:28;17.65;;;8.93;;
81821;SDS011;72257;52.384;4.882;2024-02-28T06:42:54;16.77;;;8.00;;
81821;SDS011;72257;52.384;4.882;2024-02-28T06:45:19;17.08;;;8.93;;
81821;SDS011;72257;52.384;4.882;2024-02-28T06:47:45;15.13;;;6.55;;
81821;SDS011;72257;52.384;4.882;2024-02-28T06:50:10;18.17;;;8.20;;
81821;SDS011;72257;52.384;4.882;2024-02-28T06:52:35;16.00;;;8.27;;
81821;SDS011;72257;52.384;4.882;2024-02-28T06:55:01;18.92;;;8.15;;
81821;SDS011;72257;52.384;4.882;2024-02-28T06:57:34;16.95;;;8.48;;
81821;SDS011;72257;52.384;4.882;2024-02-28T06:59:59;15.25;;;8.60;;
81821;SDS011;72257;52.384;4.882;2024-02-28T07:02:24;17.10;;;9.20;;
81821;SDS011;72257;52.384;4.882;2024-02-28T07:04:49;18.50;;;9.93;;
81821;SDS011;72257;52.384;4.882;2024-02-28T07:07:15;16.53;;;7.90;;
81821;SDS011;72257;52.384;4.882;2024-02-28T07:09:40;16.33;;;9.03;;
81821;SDS011;72257;52.384;4.882;2024-02-28T07:12:05;21.03;;;9.80;;
81821;SDS011;72257;52.384;4.882;2024-02-28T07:14:31;17.05;;;9.23;;
81821;SDS011;72257;52.384;4.882;2024-02-28T07:16:56;16.80;;;9.05;;
81821;SDS011;72257;52.384;4.882;2024-02-28T07:19:22;21.05;;;9.60;;
81821;SDS011;72257;52.384;4.882;2024-02-28T07:21:47;19.33;;;9.60;;
81821;SDS011;72257;52.384;4.882;2024-02-28T07:24:12;18.27;;;8.97;;
81821;SDS011;72257;52.384;4.882;2024-02-28T07:26:38;21.40;;;10.57;;
81821;SDS011;72257;52.384;4.882;2024-02-28T07:29:05;18.40;;;9.30;;
81821;SDS011;72257;52.384;4.882;2024-02-28T07:31:30;18.17;;;9.37;;
81821;SDS011;72257;52.384;4.882;2024-02-28T07:33:56;17.88;;;9.10;;
81821;SDS011;72257;52.384;4.882;2024-02-28T07:36:21;19.10;;;10.20;;
81821;SDS011;72257;52.384;4.882;2024-02-28T07:38:47;16.35;;;8.35;;
81821;SDS011;72257;52.384;4.882;2024-02-28T07:41:13;23.13;;;9.82;;
81821;SDS011;72257;52.384;4.882;2024-02-28T07:43:41;21.25;;;10.27;;
81821;SDS011;72257;52.384;4.882;2024-02-28T07:46:08;18.17;;;9.88;;
81821;SDS011;72257;52.384;4.882;2024-02-28T07:48:34;19.40;;;10.35;;
81821;SDS011;72257;52.384;4.882;2024-02-28T07:51:00;18.83;;;10.13;;
81821;SDS011;72257;52.384;4.882;2024-02-28T07:53:26;20.77;;;9.93;;
81821;SDS011;72257;52.384;4.882;2024-02-28T07:55:51;20.73;;;11.27;;
81821;SDS011;72257;52.384;4.882;2024-02-28T07:58:17;19.05;;;10.00;;
81821;SDS011;72257;52.384;4.882;2024-02-28T08:00:42;19.23;;;10.47;;
81821;SDS011;72257;52.384;4.882;2024-02-28T08:03:09;20.08;;;11.30;;
81821;SDS011;72257;52.384;4.882;2024-02-28T08:05:34;18.33;;;10.15;;
81821;SDS011;72257;52.384;4.882;2024-02-28T08:08:04;17.90;;;9.60;;
81821;SDS011;72257;52.384;4.882;2024-02-28T08:10:30;19.17;;;10.57;;
81821;SDS011;72257;52.384;4.882;2024-02-28T08:12:55;17.13;;;10.37;;
81821;SDS011;72257;52.384;4.882;2024-02-28T08:15:21;17.00;;;9.83;;
81821;SDS011;72257;52.384;4.882;2024-02-28T08:17:46;19.33;;;11.27;;
81821;SDS011;72257;52.384;4.882;2024-02-28T08:20:11;22.17;;;10.80;;
81821;SDS011;72257;52.384;4.882;2024-02-28T08:22:37;21.95;;;10.45;;
81821;SDS011;72257;52.384;4.882;2024-02-28T08:25:03;16.80;;;9.43;;
81821;SDS011;72257;52.384;4.882;2024-02-28T08:27:29;21.27;;;10.98;;
81821;SDS011;72257;52.384;4.882;2024-02-28T08:29:54;14.97;;;8.93;;
81821;SDS011;72257;52.384;4.882;2024-02-28T08:32:20;18.15;;;10.40;;
81821;SDS011;72257;52.384;4.882;2024-02-28T08:34:45;20.93;;;11.47;;
81821;SDS011;72257;52.384;4.882;2024-02-28T08:37:11;18.50;;;10.73;;
81821;SDS011;72257;52.384;4.882;2024-02-28T08:39:37;20.02;;;10.85;;
81821;SDS011;72257;52.384;4.882;2024-02-28T08:42:03;17.83;;;10.30;;
81821;SDS011;72257;52.384;4.882;2024-02-28T08:44:28;21.95;;;11.60;;
81821;SDS011;72257;52.384;4.882;2024-02-28T08:46:54;16.73;;;10.23;;
81821;SDS011;72257;52.384;4.882;2024-02-28T08:49:19;20.75;;;10.45;;
81821;SDS011;72257;52.384;4.882;2024-02-28T08:51:44;16.40;;;10.30;;
81821;SDS011;72257;52.384;4.882;2024-02-28T08:54:10;19.33;;;11.03;;
81821;SDS011;72257;52.384;4.882;2024-02-28T08:56:35;19.77;;;10.53;;
81821;SDS011;72257;52.384;4.882;2024-02-28T08:59:00;18.90;;;10.17;;
81821;SDS011;72257;52.384;4.882;2024-02-28T09:01:26;19.70;;;11.53;;
81821;SDS011;72257;52.384;4.882;2024-02-28T09:03:51;20.43;;;11.13;;
81821;SDS011;72257;52.384;4.882;2024-02-28T09:06:16;19.60;;;10.73;;
81821;SDS011;72257;52.384;4.882;2024-02-28T09:08:42;17.63;;;11.07;;
81821;SDS011;72257;52.384;4.882;2024-02-28T09:11:07;20.33;;;10.88;;
81821;SDS011;72257;52.384;4.882;2024-02-28T09:13:33;18.88;;;10.65;;
81821;SDS011;72257;52.384;4.882;2024-02-28T09:16:00;22.17;;;11.13;;
81821;SDS011;72257;52.384;4.882;2024-02-28T09:18:26;19.17;;;10.55;;
81821;SDS011;72257;52.384;4.882;2024-02-28T09:20:53;21.30;;;11.52;;
81821;SDS011;72257;52.384;4.882;2024-02-28T09:23:18;20.35;;;10.88;;
81821;SDS011;72257;52.384;4.882;2024-02-28T09:25:44;21.77;;;12.00;;
81821;SDS011;72257;52.384;4.882;2024-02-28T09:28:09;19.42;;;11.25;;
81821;SDS011;72257;52.384;4.882;2024-02-28T09:30:37;22.27;;;10.10;;
81821;SDS011;72257;52.384;4.882;2024-02-28T09:33:03;19.42;;;11.05;;
81821;SDS011;72257;52.384;4.882;2024-02-28T09:35:29;18.35;;;10.90;;
81821;SDS011;72257;52.384;4.882;2024-02-28T09:37:54;13.47;;;8.83;;
81821;SDS011;72257;52.384;4.882;2024-02-28T09:40:19;23.30;;;12.27;;
81821;SDS011;72257;52.384;4.882;2024-02-28T09:42:47;17.63;;;9.52;;
81821;SDS011;72257;52.384;4.882;2024-02-28T09:45:18;18.52;;;10.25;;
81821;SDS011;72257;52.384;4.882;2024-02-28T09:47:46;18.38;;;9.95;;
81821;SDS011;72257;52.384;4.882;2024-02-28T09:50:12;17.75;;;10.73;;
81821;SDS011;72257;52.384;4.882;2024-02-28T09:52:37;14.70;;;8.95;;
81821;SDS011;72257;52.384;4.882;2024-02-28T09:55:03;25.67;;;10.73;;
81821;SDS011;72257;52.384;4.882;2024-02-28T09:57:29;17.35;;;9.88;;
81821;SDS011;72257;52.384;4.882;2024-02-28T09:59:56;17.48;;;9.73;;
81821;SDS011;72257;52.384;4.882;2024-02-28T10:02:26;19.63;;;9.93;;
81821;SDS011;72257;52.384;4.882;2024-02-28T10:04:53;17.13;;;9.40;;
81821;SDS011;72257;52.384;4.882;2024-02-28T10:07:20;22.30;;;10.38;;
81821;SDS011;72257;52.384;4.882;2024-02-28T10:09:46;16.00;;;9.82;;
81821;SDS011;72257;52.384;4.882;2024-02-28T10:12:12;17.90;;;9.90;;
81821;SDS011;72257;52.384;4.882;2024-02-28T10:14:37;17.90;;;10.23;;
81821;SDS011;72257;52.384;4.882;2024-02-28T10:17:03;24.23;;;10.98;;
81821;SDS011;72257;52.384;4.882;2024-02-28T10:19:29;16.80;;;10.65;;
81821;SDS011;72257;52.384;4.882;2024-02-28T10:21:55;19.05;;;10.45;;
81821;SDS011;72257;52.384;4.882;2024-02-28T10:24:20;23.48;;;10.75;;
81821;SDS011;72257;52.384;4.882;2024-02-28T10:29:20;19.13;;;9.85;;
81821;SDS011;72257;52.384;4.882;2024-02-28T10:31:47;16.63;;;10.30;;
81821;SDS011;72257;52.384;4.882;2024-02-28T10:34:13;16.40;;;9.70;;
81821;SDS011;72257;52.384;4.882;2024-02-28T10:36:43;19.48;;;9.95;;
81821;SDS011;72257;52.384;4.882;2024-02-28T10:39:10;19.13;;;9.93;;
81821;SDS011;72257;52.384;4.882;2024-02-28T10:41:39;18.30;;;10.15;;
81821;SDS011;72257;52.384;4.882;2024-02-28T10:44:05;18.65;;;10.38;;
81821;SDS011;72257;52.384;4.882;2024-02-28T10:46:30;14.25;;;9.98;;
81821;SDS011;72257;52.384;4.882;2024-02-28T10:48:56;16.65;;;9.65;;
81821;SDS011;72257;52.384;4.882;2024-02-28T10:51:25;18.08;;;10.20;;
81821;SDS011;72257;52.384;4.882;2024-02-28T10:54:02;19.75;;;10.30;;
81821;SDS011;72257;52.384;4.882;2024-02-28T10:56:32;16.50;;;9.70;;
81821;SDS011;72257;52.384;4.882;2024-02-28T10:58:58;18.02;;;10.82;;
81821;SDS011;72257;52.384;4.882;2024-02-28T11:01:25;16.60;;;10.35;;
81821;SDS011;72257;52.384;4.882;2024-02-28T11:03:50;16.98;;;9.27;;
81821;SDS011;72257;52.384;4.882;2024-02-28T11:06:20;17.60;;;9.15;;
81821;SDS011;72257;52.384;4.882;2024-02-28T11:08:47;15.32;;;9.60;;
81821;SDS011;72257;52.384;4.882;2024-02-28T11:13:56;15.75;;;8.88;;
81821;SDS011;72257;52.384;4.882;2024-02-28T11:16:26;18.77;;;9.45;;
81821;SDS011;72257;52.384;4.882;2024-02-28T11:18:58;12.35;;;9.00;;
81821;SDS011;72257;52.384;4.882;2024-02-28T11:21:25;14.25;;;9.25;;
81821;SDS011;72257;52.384;4.882;2024-02-28T11:23:51;17.48;;;9.43;;
81821;SDS011;72257;52.384;4.882;2024-02-28T11:26:17;15.43;;;8.95;;
81821;SDS011;72257;52.384;4.882;2024-02-28T11:28:43;20.02;;;10.05;;
81821;SDS011;72257;52.384;4.882;2024-02-28T11:31:08;16.70;;;10.50;;
81821;SDS011;72257;52.384;4.882;2024-02-28T11:33:35;18.95;;;10.98;;
81821;SDS011;72257;52.384;4.882;2024-02-28T11:36:01;16.20;;;10.20;;
81821;SDS011;72257;52.384;4.882;2024-02-28T11:38:28;17.60;;;10.07;;
81821;SDS011;72257;52.384;4.882;2024-02-28T11:40:54;20.33;;;10.35;;
81821;SDS011;72257;52.384;4.882;2024-02-28T11:43:22;15.57;;;9.13;;
81821;SDS011;72257;52.384;4.882;2024-02-28T11:45:48;14.43;;;8.77;;
81821;SDS011;72257;52.384;4.882;2024-02-28T11:48:13;15.82;;;9.35;;
81821;SDS011;72257;52.384;4.882;2024-02-28T11:50:39;14.90;;;8.75;;
81821;SDS011;72257;52.384;4.882;2024-02-28T11:53:05;16.30;;;9.93;;
81821;SDS011;72257;52.384;4.882;2024-02-28T11:55:32;14.32;;;8.45;;
81821;SDS011;72257;52.384;4.882;2024-02-28T11:57:57;14.05;;;8.95;;
81821;SDS011;72257;52.384;4.882;2024-02-28T12:00:23;16.83;;;8.67;;
81821;SDS011;72257;52.384;4.882;2024-02-28T12:02:48;12.70;;;7.95;;
81821;SDS011;72257;52.384;4.882;2024-02-28T12:05:13;15.93;;;8.68;;
81821;SDS011;72257;52.384;4.882;2024-02-28T12:07:39;14.48;;;7.97;;
81821;SDS011;72257;52.384;4.882;2024-02-28T12:10:04;13.63;;;8.23;;
81821;SDS011;72257;52.384;4.882;2024-02-28T12:12:31;12.00;;;6.70;;
81821;SDS011;72257;52.384;4.882;2024-02-28T12:15:00;12.07;;;7.57;;
81821;SDS011;72257;52.384;4.882;2024-02-28T12:17:28;14.52;;;7.35;;
81821;SDS011;72257;52.384;4.882;2024-02-28T12:19:54;14.38;;;7.88;;
81821;SDS011;72257;52.384;4.882;2024-02-28T12:22:20;10.00;;;6.45;;
81821;SDS011;72257;52.384;4.882;2024-02-28T12:24:45;11.52;;;6.35;;
81821;SDS011;72257;52.384;4.882;2024-02-28T12:27:11;10.43;;;5.80;;
81821;SDS011;72257;52.384;4.882;2024-02-28T12:29:36;8.07;;;5.57;;
81821;SDS011;72257;52.384;4.882;2024-02-28T12:32:02;12.47;;;6.03;;
81821;SDS011;72257;52.384;4.882;2024-02-28T12:34:27;14.82;;;6.60;;
81821;SDS011;72257;52.384;4.882;2024-02-28T12:36:53;11.80;;;6.73;;
81821;SDS011;72257;52.384;4.882;2024-02-28T12:39:19;12.13;;;7.25;;
81821;SDS011;72257;52.384;4.882;2024-02-28T12:41:44;14.55;;;7.40;;
81821;SDS011;72257;52.384;4.882;2024-02-28T12:44:09;12.75;;;7.05;;
81821;SDS011;72257;52.384;4.882;2024-02-28T12:46:35;11.98;;;7.18;;
81821;SDS011;72257;52.384;4.882;2024-02-28T12:49:01;11.10;;;7.03;;
81821;SDS011;72257;52.384;4.882;2024-02-28T12:54:09;12.15;;;7.60;;
81821;SDS011;72257;52.384;4.882;2024-02-28T12:56:35;11.45;;;6.95;;
81821;SDS011;72257;52.384;4.882;2024-02-28T12:59:01;13.25;;;7.75;;
81821;SDS011;72257;52.384;4.882;2024-02-28T13:01:27;13.98;;;8.20;;
81821;SDS011;72257;52.384;4.882;2024-02-28T13:03:54;13.15;;;8.05;;
81821;SDS011;72257;52.384;4.882;2024-02-28T13:06:19;13.65;;;8.02;;
81821;SDS011;72257;52.384;4.882;2024-02-28T13:08:45;13.38;;;8.23;;
81821;SDS011;72257;52.384;4.882;2024-02-28T13:11:10;10.88;;;7.20;;
81821;SDS011;72257;52.384;4.882;2024-02-28T13:13:36;12.65;;;7.00;;
81821;SDS011;72257;52.384;4.882;2024-02-28T13:16:02;13.85;;;7.47;;
81821;SDS011;72257;52.384;4.882;2024-02-28T13:18:27;12.13;;;7.15;;
81821;SDS011;72257;52.384;4.882;2024-02-28T13:20:53;11.52;;;6.97;;
81821;SDS011;72257;52.384;4.882;2024-02-28T13:23:18;13.38;;;6.63;;
81821;SDS011;72257;52.384;4.882;2024-02-28T13:25:44;13.05;;;6.78;;
81821;SDS011;72257;52.384;4.882;2024-02-28T13:28:10;12.70;;;6.65;;
81821;SDS011;72257;52.384;4.882;2024-02-28T13:30:35;12.07;;;6.03;;
81821;SDS011;72257;52.384;4.882;2024-02-28T13:33:02;11.73;;;7.10;;
81821;SDS011;72257;52.384;4.882;2024-02-28T13:35:28;10.70;;;6.50;;
81821;SDS011;72257;52.384;4.882;2024-02-28T13:37:53;13.13;;;6.65;;
81821;SDS011;72257;52.384;4.882;2024-02-28T13:40:19;13.38;;;7.63;;
81821;SDS011;72257;52.384;4.882;2024-02-28T13:42:45;12.57;;;6.88;;
81821;SDS011;72257;52.384;4.882;2024-02-28T13:45:10;13.65;;;7.50;;
81821;SDS011;72257;52.384;4.882;2024-02-28T13:47:36;11.45;;;7.18;;
81821;SDS011;72257;52.384;4.882;2024-02-28T13:50:02;14.48;;;7.40;;
81821;SDS011;72257;52.384;4.882;2024-02-28T13:52:28;17.30;;;8.13;;
81821;SDS011;72257;52.384;4.882;2024-02-28T13:54:53;14.50;;;8.43;;
81821;SDS011;72257;52.384;4.882;2024-02-28T13:57:19;15.50;;;9.20;;
81821;SDS011;72257;52.384;4.882;2024-02-28T13:59:44;19.83;;;12.27;;
81821;SDS011;72257;52.384;4.882;2024-02-28T14:02:13;20.35;;;11.18;;
81821;SDS011;72257;52.384;4.882;2024-02-28T14:04:40;16.35;;;8.75;;
81821;SDS011;72257;52.384;4.882;2024-02-28T14:07:07;16.77;;;10.02;;
81821;SDS011;72257;52.384;4.882;2024-02-28T14:09:33;16.85;;;8.52;;
81821;SDS011;72257;52.384;4.882;2024-02-28T14:11:58;19.37;;;10.50;;
81821;SDS011;72257;52.384;4.882;2024-02-28T14:14:23;19.80;;;9.53;;
81821;SDS011;72257;52.384;4.882;2024-02-28T14:16:49;17.10;;;9.60;;
81821;SDS011;72257;52.384;4.882;2024-02-28T14:19:14;18.80;;;9.63;;
81821;SDS011;72257;52.384;4.882;2024-02-28T14:21:39;20.20;;;9.93;;
81821;SDS011;72257;52.384;4.882;2024-02-28T14:24:05;18.83;;;10.05;;
81821;SDS011;72257;52.384;4.882;2024-02-28T14:26:30;20.88;;;12.07;;
81821;SDS011;72257;52.384;4.882;2024-02-28T14:28:56;20.38;;;11.20;;
81821;SDS011;72257;52.384;4.882;2024-02-28T14:31:22;19.17;;;9.40;;
81821;SDS011;72257;52.384;4.882;2024-02-28T14:33:48;18.98;;;10.15;;
81821;SDS011;72257;52.384;4.882;2024-02-28T14:36:13;19.33;;;9.20;;